Time;durP1;ratioP1;P1;durP2;ratioP2;P2;SDS_P1;SDS_P2;PMS_P1;PMS_P2;Temp;Humidity;BMP_temperature;BMP_pressure;BME280_temperature;BME280_humidity;BME280_pressure;Samples;Min_cycle;Max_cycle;Signal;HPM_P1;HPM_P2
2021/03/30 00:00:52;;;;;;;21.40;10.50;;;;;;;5.07;69.90;102013.23;126293;1099;104146;-78
2021/03/30 00:03:20;;;;;;;22.40;10.63;;;;;;;5.04;70.08;102011.28;126306;1099;104224;-79
2021/03/30 00:05:49;;;;;;;23.73;10.63;;;;;;;4.99;69.72;102008.30;126329;1099;104280;-77
2021/03/30 00:08:18;;;;;;;21.57;10.47;;;;;;;4.96;70.18;102010.66;126306;1099;104271;-78
2021/03/30 00:10:48;;;;;;;20.73;10.30;;;;;;;4.95;69.75;102010.53;126263;1099;104149;-79
2021/03/30 00:13:17;;;;;;;21.83;10.03;;;;;;;4.93;70.38;102012.10;126272;1099;104149;-79
2021/03/30 00:15:46;;;;;;;21.65;10.30;;;;;;;4.92;70.04;102011.17;126255;1099;104242;-78
2021/03/30 00:18:15;;;;;;;22.57;10.90;;;;;;;4.91;69.89;102011.97;126313;1099;104143;-77
2021/03/30 00:20:44;;;;;;;23.03;10.33;;;;;;;4.89;70.22;102004.81;126247;1099;104191;-78
2021/03/30 00:23:15;;;;;;;22.40;10.77;;;;;;;4.86;69.83;102022.00;126234;1099;104291;-78
2021/03/30 00:25:44;;;;;;;22.13;10.70;;;;;;;4.83;69.86;102023.41;126230;1099;104143;-78
2021/03/30 00:28:13;;;;;;;21.37;10.40;;;;;;;4.78;70.01;102012.63;126257;1099;104608;-78
2021/03/30 00:30:42;;;;;;;20.57;9.87;;;;;;;4.75;69.95;102022.77;126229;1098;104175;-78
2021/03/30 00:33:10;;;;;;;23.00;10.70;;;;;;;4.74;70.66;102020.08;126295;1098;104226;-78
2021/03/30 00:35:39;;;;;;;22.47;10.33;;;;;;;4.74;70.55;102012.28;126251;1099;105489;-78
2021/03/30 00:38:10;;;;;;;21.90;10.00;;;;;;;4.72;70.21;102021.62;126235;1099;104140;-78
2021/03/30 00:40:40;;;;;;;22.03;10.23;;;;;;;4.71;69.72;102020.72;126230;1098;105508;-79
2021/03/30 00:43:08;;;;;;;22.17;10.37;;;;;;;4.69;70.54;102027.49;126340;1099;104760;-79
2021/03/30 00:45:37;;;;;;;22.83;11.20;;;;;;;4.66;70.54;102030.73;126283;1099;104157;-79
2021/03/30 00:48:19;;;;;;;22.97;10.77;;;;;;;4.61;70.26;102021.65;126208;1099;104304;-79
2021/03/30 00:50:48;;;;;;;24.23;10.70;;;;;;;4.57;70.36;102016.95;126234;1099;104637;-79
2021/03/30 00:53:37;;;;;;;22.07;10.33;;;;;;;4.53;70.65;102019.17;126276;1099;104169;-77
2021/03/30 00:56:22;;;;;;;21.43;9.03;;;;;;;4.52;70.76;102018.27;126228;1099;104220;-78
2021/03/30 00:58:55;;;;;;;19.83;9.47;;;;;;;4.50;70.12;102015.55;126272;1099;104201;-79
2021/03/30 01:01:24;;;;;;;19.47;10.10;;;;;;;4.52;70.19;102014.73;126198;1099;104586;-78
2021/03/30 01:03:52;;;;;;;21.67;9.40;;;;;;;4.53;70.22;102019.17;126274;1099;104172;-78
2021/03/30 01:06:21;;;;;;;19.67;9.10;;;;;;;4.54;70.57;102014.09;126269;1099;104277;-78
2021/03/30 01:09:08;;;;;;;20.83;9.20;;;;;;;4.55;70.12;102015.00;126268;1099;104149;-79
2021/03/30 01:11:44;;;;;;;20.63;9.90;;;;;;;4.55;70.86;102013.33;126217;1099;104163;-78
2021/03/30 01:14:26;;;;;;;22.07;10.47;;;;;;;4.55;70.34;102007.20;126196;1099;104332;-77
2021/03/30 01:17:06;;;;;;;19.57;8.83;;;;;;;4.55;70.45;102010.73;126312;1099;104134;-78
2021/03/30 01:19:59;;;;;;;24.73;9.43;;;;;;;4.54;70.87;102003.70;125353;1099;104150;-79
2021/03/30 01:22:55;;;;;;;22.13;9.93;;;;;;;4.54;70.78;102014.09;126241;1099;106706;-77
2021/03/30 01:25:26;;;;;;;19.80;9.07;;;;;;;4.51;70.82;102011.24;126238;1099;104275;-77
2021/03/30 01:28:02;;;;;;;21.25;10.25;;;;;;;4.49;70.60;102005.91;126195;1099;104255;-78
2021/03/30 01:30:33;;;;;;;21.53;9.30;;;;;;;4.48;70.89;102013.58;126272;1099;104223;-79
2021/03/30 01:33:10;;;;;;;22.13;10.23;;;;;;;4.47;70.54;102010.08;126234;1099;105396;-78
2021/03/30 01:35:41;;;;;;;24.07;10.13;;;;;;;4.47;70.96;102010.08;126322;1099;104618;-78
2021/03/30 01:38:13;;;;;;;20.90;9.40;;;;;;;4.45;70.87;102001.23;126318;1099;104142;-78
2021/03/30 01:40:44;;;;;;;22.40;10.07;;;;;;;4.44;71.15;102006.30;126169;1099;104200;-78
2021/03/30 01:43:16;;;;;;;19.67;9.53;;;;;;;4.41;70.86;102004.37;126292;1099;104837;-78
2021/03/30 01:45:45;;;;;;;20.25;9.35;;;;;;;4.41;70.49;102004.37;126285;1099;104172;-79
2021/03/30 01:48:15;;;;;;;22.73;10.17;;;;;;;4.38;70.89;102003.17;126328;1099;104129;-78
2021/03/30 01:50:45;;;;;;;20.87;9.87;;;;;;;4.36;70.86;102000.45;126268;1099;104294;-79
2021/03/30 01:53:15;;;;;;;22.07;10.27;;;;;;;4.35;71.04;102008.11;126282;1098;104172;-78
2021/03/30 01:55:46;;;;;;;22.10;10.17;;;;;;;4.32;71.11;102009.69;126290;1099;104150;-78
2021/03/30 01:58:20;;;;;;;20.93;10.00;;;;;;;4.30;70.70;102003.45;126321;1099;104146;-78
2021/03/30 02:00:50;;;;;;;21.43;10.00;;;;;;;4.25;70.97;102012.53;126369;1099;104146;-78
2021/03/30 02:03:21;;;;;;;23.97;10.23;;;;;;;4.20;71.31;102011.23;126181;1098;118689;-78
2021/03/30 02:05:52;;;;;;;23.07;10.63;;;;;;;4.16;70.46;102001.38;126237;1099;104249;-78
2021/03/30 02:08:21;;;;;;;23.13;10.20;;;;;;;4.12;71.16;101997.59;126289;1098;104220;-79
2021/03/30 02:10:52;;;;;;;20.93;9.57;;;;;;;4.10;71.10;102006.05;126246;1099;104223;-79
2021/03/30 02:13:28;;;;;;;22.03;9.80;;;;;;;4.08;71.26;102005.92;126239;1099;104143;-79
2021/03/30 02:16:02;;;;;;;25.63;11.60;;;;;;;4.07;71.33;102011.88;126211;1099;104309;-78
2021/03/30 02:18:39;;;;;;;21.13;9.93;;;;;;;4.06;70.66;102004.85;126216;1098;104366;-78
2021/03/30 02:21:11;;;;;;;21.23;9.80;;;;;;;4.09;71.23;102012.02;126259;1099;104283;-78
2021/03/30 02:23:42;;;;;;;23.00;10.27;;;;;;;4.09;71.61;102015.51;126272;1099;104136;-78
2021/03/30 02:26:14;;;;;;;21.33;9.73;;;;;;;4.10;70.71;102008.65;126274;1099;104143;-78
2021/03/30 02:28:48;;;;;;;22.47;9.97;;;;;;;4.10;70.92;102003.45;126280;1099;104207;-79
2021/03/30 02:31:21;;;;;;;23.35;11.10;;;;;;;4.11;70.80;101993.19;126242;1099;104181;-77
2021/03/30 02:33:53;;;;;;;22.47;10.30;;;;;;;4.12;71.71;101999.28;126227;1099;105511;-77
2021/03/30 02:36:27;;;;;;;20.57;9.57;;;;;;;4.14;71.13;101998.65;126291;1099;104175;-77
2021/03/30 02:39:00;;;;;;;24.07;10.73;;;;;;;4.17;71.16;101992.78;126282;1099;104177;-77
2021/03/30 02:41:30;;;;;;;23.37;10.10;;;;;;;4.19;71.41;102005.91;126290;1099;104143;-79
2021/03/30 02:44:01;;;;;;;20.63;9.67;;;;;;;4.21;70.88;102000.08;126196;1099;104366;-78
2021/03/30 02:46:32;;;;;;;23.37;10.93;;;;;;;4.24;71.42;102005.53;126284;1099;104277;-79
2021/03/30 02:49:02;;;;;;;24.57;11.80;;;;;;;4.25;71.60;102002.13;126277;1099;104281;-79
2021/03/30 02:51:33;;;;;;;23.73;11.07;;;;;;;4.28;71.37;102006.69;126263;1099;104146;-79
2021/03/30 02:54:03;;;;;;;20.23;10.47;;;;;;;4.27;71.34;102020.45;126230;1099;104137;-79
2021/03/30 02:56:32;;;;;;;24.27;12.00;;;;;;;4.23;71.66;102019.30;126197;1099;104191;-79
2021/03/30 02:59:02;;;;;;;25.57;12.17;;;;;;;4.21;71.04;102015.66;126240;1099;104139;-79
2021/03/30 03:01:32;;;;;;;23.23;11.13;;;;;;;4.18;71.19;102024.89;126262;1099;104210;-79
2021/03/30 03:04:02;;;;;;;25.13;12.37;;;;;;;4.16;71.55;102018.63;126278;1099;104182;-77
2021/03/30 03:06:32;;;;;;;23.43;11.40;;;;;;;4.12;71.07;102028.77;126301;1099;104153;-78
2021/03/30 03:09:02;;;;;;;26.00;11.93;;;;;;;4.09;71.94;102025.00;126280;1099;104227;-78
2021/03/30 03:11:31;;;;;;;27.47;13.20;;;;;;;4.07;71.72;102023.97;126212;1098;104159;-77
2021/03/30 03:14:00;;;;;;;25.03;12.23;;;;;;;4.08;71.69;102028.37;126095;1099;104267;-77
2021/03/30 03:16:31;;;;;;;29.27;13.77;;;;;;;4.08;71.11;102028.37;126292;1099;104145;-78
2021/03/30 03:19:00;;;;;;;26.85;12.20;;;;;;;4.05;71.62;102025.50;126263;1098;104204;-78
2021/03/30 03:21:30;;;;;;;25.43;11.90;;;;;;;4.02;71.08;102030.43;126179;1099;104150;-77
2021/03/30 03:23:59;;;;;;;27.47;12.87;;;;;;;4.01;71.73;102039.02;126212;1099;104152;-78
2021/03/30 03:26:28;;;;;;;24.90;11.73;;;;;;;3.96;71.53;102034.33;126271;1099;104153;-78
2021/03/30 03:29:01;;;;;;;26.30;12.13;;;;;;;3.95;71.59;102029.00;126218;1099;104350;-78
2021/03/30 03:31:30;;;;;;;26.53;11.73;;;;;;;3.95;71.78;102032.50;126233;1098;104172;-78
2021/03/30 03:34:03;;;;;;;26.30;12.70;;;;;;;3.98;71.13;102041.36;126178;1099;104149;-79
2021/03/30 03:36:42;;;;;;;26.87;12.50;;;;;;;3.98;72.01;102036.16;126267;1099;104290;-78
2021/03/30 03:39:14;;;;;;;25.10;12.00;;;;;;;3.98;71.92;102049.15;126242;1099;104240;-78
2021/03/30 03:41:44;;;;;;;24.07;11.60;;;;;;;3.94;71.85;102045.35;126297;1099;104152;-78
2021/03/30 03:44:14;;;;;;;22.43;11.60;;;;;;;3.93;71.59;102044.45;126185;1099;104293;-79
2021/03/30 03:46:43;;;;;;;23.77;11.73;;;;;;;3.91;71.73;102048.61;126249;1099;104283;-77
2021/03/30 03:49:11;;;;;;;25.27;11.43;;;;;;;3.89;71.45;102042.35;126309;1099;104169;-78
2021/03/30 03:51:44;;;;;;;25.73;12.17;;;;;;;3.88;72.47;102050.94;126260;1098;104193;-78
2021/03/30 03:54:16;;;;;;;22.83;11.10;;;;;;;3.87;71.70;102049.11;126246;1099;104152;-78
2021/03/30 03:56:47;;;;;;;26.60;11.35;;;;;;;3.87;71.50;102048.21;126241;1099;104143;-78
2021/03/30 03:59:19;;;;;;;27.40;12.67;;;;;;;3.86;71.78;102055.06;126265;1099;104142;-78
2021/03/30 04:01:56;;;;;;;23.50;11.57;;;;;;;3.85;71.80;102050.67;126312;1099;104140;-78
2021/03/30 04:04:34;;;;;;;23.70;11.13;;;;;;;3.83;71.32;102062.59;126201;1099;104271;-79
2021/03/30 04:07:05;;;;;;;26.13;12.40;;;;;;;3.83;71.41;102057.39;126315;1097;104178;-77
2021/03/30 04:09:36;;;;;;;23.83;11.27;;;;;;;3.85;72.15;102053.27;126252;1099;104150;-77
2021/03/30 04:12:10;;;;;;;25.23;11.83;;;;;;;3.86;71.87;102059.36;126219;1097;104222;-78
2021/03/30 04:14:39;;;;;;;25.43;11.97;;;;;;;3.87;72.10;102062.09;126168;1099;104150;-78
2021/03/30 04:17:16;;;;;;;24.47;12.27;;;;;;;3.87;71.79;102061.20;126249;1099;104370;-78
2021/03/30 04:19:46;;;;;;;23.03;11.90;;;;;;;3.85;71.86;102070.52;126170;1099;104145;-78
2021/03/30 04:22:18;;;;;;;23.03;11.33;;;;;;;3.86;71.75;102075.84;126234;1099;104152;-78
2021/03/30 04:24:47;;;;;;;27.07;12.27;;;;;;;3.85;71.35;102074.05;126167;1099;104280;-78
2021/03/30 04:27:16;;;;;;;24.20;10.93;;;;;;;3.84;71.36;102073.91;126229;1099;104136;-78
2021/03/30 04:29:46;;;;;;;25.90;12.27;;;;;;;3.84;72.01;102077.41;126159;1099;104136;-78
2021/03/30 04:32:14;;;;;;;27.57;13.57;;;;;;;3.86;71.86;102080.14;126170;1099;104732;-78
2021/03/30 04:34:43;;;;;;;26.23;13.10;;;;;;;3.89;72.02;102077.81;126143;1099;104287;-78
2021/03/30 04:37:13;;;;;;;24.80;12.07;;;;;;;3.90;71.49;102080.55;126202;1099;104166;-78
2021/03/30 04:39:41;;;;;;;27.00;12.97;;;;;;;3.94;71.93;102085.24;126147;1099;104197;-78
2021/03/30 04:42:10;;;;;;;29.83;12.37;;;;;;;3.96;72.13;102088.88;126046;1099;104143;-76
2021/03/30 04:44:39;;;;;;;26.17;12.23;;;;;;;3.99;71.71;102093.44;126019;1099;104187;-76
2021/03/30 04:47:14;;;;;;;26.83;12.37;;;;;;;4.01;72.10;102089.28;125987;1099;104272;-76
2021/03/30 04:49:44;;;;;;;26.23;12.73;;;;;;;4.05;71.49;102096.58;125933;1099;104171;-76
2021/03/30 04:52:13;;;;;;;25.03;13.20;;;;;;;4.11;72.38;102097.11;125968;1099;104259;-76
2021/03/30 04:54:42;;;;;;;29.77;12.83;;;;;;;4.21;72.14;102092.72;125829;1099;104281;-76
2021/03/30 04:57:11;;;;;;;27.00;12.73;;;;;;;4.29;72.22;102102.08;126022;1099;104162;-77
2021/03/30 04:59:40;;;;;;;26.50;12.20;;;;;;;4.32;71.72;102092.84;125971;1099;104425;-77
2021/03/30 05:02:09;;;;;;;27.07;13.07;;;;;;;4.39;71.90;102106.38;125935;1099;104226;-76
2021/03/30 05:04:37;;;;;;;25.10;12.20;;;;;;;4.44;72.04;102098.20;125822;1099;104248;-76
2021/03/30 05:07:10;;;;;;;28.63;13.23;;;;;;;4.52;72.29;102100.53;125916;1099;104288;-78
2021/03/30 05:09:40;;;;;;;27.87;13.40;;;;;;;4.58;72.42;102101.05;126039;1099;104229;-79
2021/03/30 05:12:37;;;;;;;28.80;13.63;;;;;;;4.63;72.22;102098.08;126110;1099;104412;-77
2021/03/30 05:15:11;;;;;;;27.50;13.40;;;;;;;4.70;72.31;102099.50;126085;1099;104140;-78
2021/03/30 05:17:42;;;;;;;25.70;12.77;;;;;;;4.74;72.37;102092.89;125875;1099;104718;-79
2021/03/30 05:20:12;;;;;;;25.10;12.17;;;;;;;4.76;72.51;102094.82;125938;1099;104277;-79
2021/03/30 05:22:42;;;;;;;27.60;12.77;;;;;;;4.76;72.12;102101.72;125921;1099;104224;-78
2021/03/30 05:25:16;;;;;;;27.53;12.77;;;;;;;4.77;71.85;102103.52;125941;1099;104198;-78
2021/03/30 05:27:50;;;;;;;25.50;12.70;;;;;;;4.77;72.00;102103.52;126074;1099;104270;-77
2021/03/30 05:30:20;;;;;;;27.20;13.62;;;;;;;4.80;72.42;102102.11;126156;1099;104700;-78
2021/03/30 05:32:50;;;;;;;27.60;12.67;;;;;;;4.86;72.58;102099.09;125980;1099;105279;-78
2021/03/30 05:35:19;;;;;;;29.30;12.50;;;;;;;4.93;72.00;102106.65;125918;1099;101933;-78
2021/03/30 05:37:49;;;;;;;29.87;14.90;;;;;;;5.01;72.29;102105.59;125187;1102;102430;-79
2021/03/30 05:40:20;;;;;;;34.53;15.90;;;;;;;5.12;72.14;102105.59;125866;1099;104514;-78
2021/03/30 05:42:50;;;;;;;35.83;17.00;;;;;;;5.20;72.02;102105.46;125026;1103;104482;-79
2021/03/30 05:45:31;;;;;;;34.37;16.33;;;;;;;5.29;72.76;102107.89;125918;1099;104156;-79
2021/03/30 05:48:11;;;;;;;35.97;16.10;;;;;;;5.36;72.29;102099.81;126063;1099;105733;-79
2021/03/30 05:50:47;;;;;;;36.00;15.43;;;;;;;5.39;72.27;102105.28;125154;1099;104549;-78
2021/03/30 05:53:18;;;;;;;32.53;14.33;;;;;;;5.42;72.52;102111.51;125787;1099;102079;-78
2021/03/30 05:55:52;;;;;;;34.10;14.95;;;;;;;5.43;72.66;102105.53;125787;1098;104174;-80
2021/03/30 05:58:32;;;;;;;29.30;14.10;;;;;;;5.47;72.38;102112.78;125688;1099;111892;-79
2021/03/30 06:01:06;;;;;;;30.93;14.93;;;;;;;5.51;72.15;102117.47;125078;1099;104165;-79
2021/03/30 06:03:37;;;;;;;35.33;16.10;;;;;;;5.56;72.12;102113.54;125750;1099;104134;-78
2021/03/30 06:06:07;;;;;;;33.40;15.97;;;;;;;5.60;72.16;102109.52;125033;1099;104223;-79
2021/03/30 06:08:36;;;;;;;32.93;16.20;;;;;;;5.63;72.23;102108.06;125889;1099;104153;-78
2021/03/30 06:11:10;;;;;;;37.23;16.00;;;;;;;5.70;72.35;102107.78;125964;1099;104287;-78
2021/03/30 06:13:51;;;;;;;36.03;16.27;;;;;;;5.83;72.92;102104.47;125979;1099;104172;-79
2021/03/30 06:16:32;;;;;;;36.17;16.90;;;;;;;5.91;72.14;102092.95;125931;1099;104333;-79
2021/03/30 06:19:13;;;;;;;29.77;16.40;;;;;;;6.10;72.36;102116.20;125842;1099;107364;-78
2021/03/30 06:21:44;;;;;;;34.50;16.03;;;;;;;6.24;72.45;102114.69;125936;1099;104206;-78
2021/03/30 06:24:29;;;;;;;30.73;15.43;;;;;;;6.35;72.13;102112.03;125919;1099;104146;-77
2021/03/30 06:27:28;;;;;;;35.70;16.17;;;;;;;6.50;72.39;102120.12;125878;1098;104650;-77
2021/03/30 06:30:00;;;;;;;33.63;16.73;;;;;;;6.66;72.18;102116.22;125086;1099;104527;-79
2021/03/30 06:32:29;;;;;;;32.80;16.17;;;;;;;6.84;72.28;102127.19;125028;1099;104172;-78
2021/03/30 06:35:13;;;;;;;33.93;17.67;;;;;;;7.04;72.01;102127.78;125076;1099;104367;-79
2021/03/30 06:37:44;;;;;;;38.60;19.10;;;;;;;7.27;72.21;102126.01;125039;1099;104319;-78
2021/03/30 06:40:21;;;;;;;38.63;20.10;;;;;;;7.44;72.31;102125.56;124947;1102;102039;-79
2021/03/30 06:42:57;;;;;;;36.17;18.97;;;;;;;7.56;72.54;102118.63;125060;1099;104463;-79
2021/03/30 06:45:30;;;;;;;36.87;19.50;;;;;;;7.60;71.81;102126.70;125097;1099;104181;-80
2021/03/30 06:48:06;;;;;;;33.37;16.37;;;;;;;7.68;72.00;102125.55;125034;1102;104318;-79
2021/03/30 06:50:40;;;;;;;37.50;18.33;;;;;;;7.70;71.17;102124.87;125030;1099;104326;-80
2021/03/30 06:53:17;;;;;;;36.00;18.83;;;;;;;7.79;71.47;102123.72;125098;1099;102676;-79
2021/03/30 06:55:49;;;;;;;36.63;17.83;;;;;;;7.88;71.43;102121.78;125078;1102;104332;-79
2021/03/30 06:58:21;;;;;;;37.40;20.30;;;;;;;7.97;71.57;102124.16;125015;1102;105883;-78
2021/03/30 07:00:51;;;;;;;37.70;18.37;;;;;;;8.05;71.44;102133.45;125224;1099;104169;-80
2021/03/30 07:03:24;;;;;;;33.97;17.70;;;;;;;8.05;71.11;102136.06;125741;1098;104319;-80
2021/03/30 07:05:57;;;;;;;35.83;17.77;;;;;;;8.06;71.33;102127.44;125835;1098;104127;-80
2021/03/30 07:08:27;;;;;;;34.00;17.27;;;;;;;8.21;71.98;102135.45;125786;1099;104175;-80
2021/03/30 07:10:57;;;;;;;37.50;19.37;;;;;;;8.34;71.77;102135.54;125732;1100;104159;-80
2021/03/30 07:13:27;;;;;;;40.73;19.27;;;;;;;8.48;71.70;102133.94;125699;1099;104268;-81
2021/03/30 07:16:07;;;;;;;37.57;19.30;;;;;;;8.63;72.14;102139.31;125640;1099;104229;-79
2021/03/30 07:21:32;;;;;;;37.90;20.53;;;;;;;8.98;71.14;102138.23;124942;1102;104271;-81
2021/03/30 07:24:08;;;;;;;36.10;20.43;;;;;;;9.13;72.13;102136.66;124960;1102;104307;-79
2021/03/30 07:26:44;;;;;;;40.37;20.07;;;;;;;9.32;71.76;102141.42;125052;1102;104172;-80
2021/03/30 07:29:23;;;;;;;39.83;21.53;;;;;;;9.31;70.80;102129.12;125024;1102;104211;-79
2021/03/30 07:32:04;;;;;;;39.93;22.13;;;;;;;9.41;71.05;102133.28;125133;1102;104325;-78
2021/03/30 07:34:46;;;;;;;37.53;21.30;;;;;;;9.47;70.33;102135.38;125088;1102;104160;-78
2021/03/30 07:37:22;;;;;;;41.20;22.37;;;;;;;9.53;70.98;102130.55;125169;1102;104332;-79
2021/03/30 07:39:58;;;;;;;40.60;22.23;;;;;;;9.62;71.33;102135.50;125165;1102;104163;-80
2021/03/30 07:42:31;;;;;;;43.87;22.93;;;;;;;9.69;70.89;102135.07;125187;1102;104572;-79
2021/03/30 07:45:13;;;;;;;39.17;22.73;;;;;;;9.73;70.88;102138.83;125269;1102;104166;-80
2021/03/30 07:47:46;;;;;;;40.30;22.13;;;;;;;9.83;70.97;102128.11;125182;1103;104214;-80
2021/03/30 07:50:17;;;;;;;41.13;23.17;;;;;;;9.92;70.94;102135.67;125136;1102;104489;-79
2021/03/30 07:52:50;;;;;;;43.60;23.37;;;;;;;9.97;70.77;102134.25;125126;1102;104621;-78
2021/03/30 07:55:29;;;;;;;39.63;22.07;;;;;;;10.04;70.75;102137.36;125137;1102;104153;-79
2021/03/30 07:58:11;;;;;;;41.10;23.43;;;;;;;10.18;70.31;102137.34;125208;1100;104197;-79
2021/03/30 08:00:56;;;;;;;44.40;23.70;;;;;;;10.33;70.69;102135.73;125080;1102;104316;-77
2021/03/30 08:03:34;;;;;;;42.33;23.67;;;;;;;10.47;70.32;102133.04;125035;1102;104204;-79
2021/03/30 08:06:20;;;;;;;45.80;23.30;;;;;;;10.57;69.73;102130.19;125020;1100;104146;-78
2021/03/30 08:08:53;;;;;;;41.30;22.03;;;;;;;10.56;70.20;102134.51;125015;1102;104293;-77
2021/03/30 08:11:47;;;;;;;42.60;23.73;;;;;;;10.62;69.17;102128.73;125244;1102;104229;-78
2021/03/30 08:14:44;;;;;;;42.47;23.57;;;;;;;10.60;69.12;102135.63;126033;1099;104171;-78
2021/03/30 08:17:20;;;;;;;44.77;22.10;;;;;;;10.65;69.47;102133.28;125911;1099;104178;-77
2021/03/30 08:20:06;;;;;;;38.87;22.77;;;;;;;10.70;69.45;102126.59;126015;1099;104270;-77
2021/03/30 08:23:11;;;;;;;42.30;23.07;;;;;;;10.74;69.43;102128.59;125941;1099;104137;-77
2021/03/30 08:25:41;;;;;;;42.50;21.40;;;;;;;10.76;68.81;102127.86;125838;1099;104159;-77
2021/03/30 08:28:10;;;;;;;39.90;22.77;;;;;;;10.76;68.83;102130.48;126031;1099;104296;-78
2021/03/30 08:30:55;;;;;;;36.40;21.10;;;;;;;10.77;68.66;102132.30;125866;1099;104283;-78
2021/03/30 08:33:32;;;;;;;;;;;;;;;10.89;68.54;102133.86;125804;1099;104261;-78
2021/03/30 08:36:17;;;;;;;37.53;21.20;;;;;;;11.02;69.02;102139.05;126041;1099;102395;-78
2021/03/30 08:38:53;;;;;;;35.30;20.37;;;;;;;11.14;68.32;102136.22;125974;1099;104284;-77
2021/03/30 08:41:47;;;;;;;37.73;20.77;;;;;;;11.26;68.69;102131.70;126080;1098;105171;-78
2021/03/30 08:44:18;;;;;;;37.05;21.27;;;;;;;11.35;68.37;102127.83;126105;1099;104242;-78
2021/03/30 08:47:04;;;;;;;38.43;21.63;;;;;;;11.37;68.36;102118.30;126049;1099;104296;-77
2021/03/30 08:49:40;;;;;;;37.80;21.27;;;;;;;11.51;68.18;102120.92;125076;1102;104137;-76
2021/03/30 08:52:12;;;;;;;42.23;22.10;;;;;;;11.59;68.19;102118.70;125117;1099;107141;-76
2021/03/30 08:54:50;;;;;;;39.73;21.70;;;;;;;11.66;68.06;102117.35;125095;1099;104293;-78
2021/03/30 08:57:34;;;;;;;37.10;21.43;;;;;;;11.59;66.75;102123.96;124999;1100;104325;-77
2021/03/30 09:00:07;;;;;;;38.77;21.90;;;;;;;11.47;67.25;102121.55;125045;1101;104386;-78
2021/03/30 09:02:38;;;;;;;35.55;21.35;;;;;;;11.54;67.56;102114.02;125024;1099;104143;-78
2021/03/30 09:05:16;;;;;;;39.67;21.57;;;;;;;11.69;67.67;102113.16;125057;1099;104155;-78
2021/03/30 09:07:49;;;;;;;36.60;21.10;;;;;;;11.84;67.57;102120.10;124993;1099;104223;-79
2021/03/30 09:10:20;;;;;;;36.27;21.47;;;;;;;11.94;67.39;102117.22;125061;1102;104373;-78
2021/03/30 09:12:49;;;;;;;37.80;22.07;;;;;;;12.14;67.28;102113.06;125022;1099;104437;-77
2021/03/30 09:15:19;;;;;;;40.33;22.17;;;;;;;12.27;67.11;102119.00;125062;1099;104171;-77
2021/03/30 09:18:00;;;;;;;39.50;21.53;;;;;;;12.30;66.62;102116.53;124998;1102;104383;-77
2021/03/30 09:20:32;;;;;;;38.87;22.07;;;;;;;12.21;65.72;102114.30;125280;1102;104597;-77
2021/03/30 09:23:14;;;;;;;40.87;22.10;;;;;;;12.14;66.48;102105.17;125891;1099;104233;-78
2021/03/30 09:25:51;;;;;;;38.37;21.83;;;;;;;12.40;66.59;102116.19;125161;1099;104181;-77
2021/03/30 09:28:21;;;;;;;41.77;23.93;;;;;;;12.61;66.39;102123.46;125086;1099;104214;-77
2021/03/30 09:30:58;;;;;;;35.97;22.47;;;;;;;12.78;65.92;102125.25;125797;1099;104222;-77
2021/03/30 09:33:37;;;;;;;36.70;21.50;;;;;;;12.92;65.63;102112.80;125193;1099;104371;-76
2021/03/30 09:36:16;;;;;;;36.70;22.10;;;;;;;13.11;65.80;102115.54;125028;1099;104171;-78
2021/03/30 09:38:57;;;;;;;35.80;20.62;;;;;;;13.31;66.57;102113.02;125580;1098;104433;-78
2021/03/30 09:41:43;;;;;;;35.80;19.50;;;;;;;13.46;65.56;102104.98;125035;1099;104216;-77
2021/03/30 09:44:26;;;;;;;32.37;18.40;;;;;;;13.65;65.14;102110.35;125041;1102;102269;-77
2021/03/30 09:46:56;;;;;;;28.87;17.43;;;;;;;13.73;65.98;102110.73;125604;1099;104333;-77
2021/03/30 09:49:27;;;;;;;30.97;18.27;;;;;;;13.87;65.11;102108.75;125634;1099;104454;-78
2021/03/30 09:52:02;;;;;;;31.83;18.10;;;;;;;13.80;64.10;102114.55;125634;1099;104163;-78
2021/03/30 09:54:41;;;;;;;27.13;16.30;;;;;;;13.72;64.35;102113.29;125750;1099;104147;-77
2021/03/30 09:57:30;;;;;;;;;;;;;;;;;;;;;
2021/03/30 10:00:17;;;;;;;;;;;;;;;;;;;;;
2021/03/30 10:02:47;;;;;;;27.80;16.30;;;;;;;13.59;64.18;102110.05;125612;1099;104130;-77
2021/03/30 10:05:31;;;;;;;27.52;15.98;;;;;;;13.66;64.24;102106.89;125650;1099;104190;-78
2021/03/30 10:08:18;;;;;;;31.37;16.40;;;;;;;13.76;63.57;102102.96;125627;1099;104268;-77
2021/03/30 10:17:53;;;;;;;29.03;16.67;;;;;;;13.84;63.10;102101.59;124978;1102;108658;-77
2021/03/30 10:21:02;;;;;;;29.40;17.07;;;;;;;13.87;63.78;102098.20;124794;1102;104169;-78
2021/03/30 10:24:10;;;;;;;27.10;16.80;;;;;;;13.75;62.71;102108.16;124829;1103;104146;-78
2021/03/30 10:26:51;;;;;;;29.43;16.27;;;;;;;13.56;63.21;102087.91;124979;1102;104146;-77
2021/03/30 10:29:37;;;;;;;25.93;15.43;;;;;;;13.69;62.88;102092.03;125124;1102;104305;-78
2021/03/30 10:32:17;;;;;;;26.63;15.83;;;;;;;13.81;62.63;102092.62;124941;1102;104411;-77
2021/03/30 10:34:49;;;;;;;29.83;17.10;;;;;;;13.87;63.39;102092.92;124949;1102;104229;-76
2021/03/30 10:37:37;;;;;;;30.73;17.47;;;;;;;13.75;62.47;102092.33;125024;1102;104146;-78
2021/03/30 10:40:11;;;;;;;28.40;17.20;;;;;;;13.60;62.12;102088.13;124981;1102;104181;-79
2021/03/30 10:46:17;;;;;;;28.07;16.12;;;;;;;13.37;61.50;102086.08;125173;1099;104580;-78
2021/03/30 10:49:21;;;;;;;26.53;15.70;;;;;;;13.38;61.65;102079.98;125403;1099;104168;-78
2021/03/30 10:51:54;;;;;;;29.60;16.97;;;;;;;13.37;61.96;102083.44;125761;1099;104175;-76
2021/03/30 10:54:24;;;;;;;27.90;15.70;;;;;;;13.48;62.09;102072.60;125766;1099;104308;-77
2021/03/30 10:57:16;;;;;;;28.83;16.53;;;;;;;13.60;62.04;102077.58;125905;1099;104198;-77
2021/03/30 11:03:15;;;;;;;30.93;17.67;;;;;;;13.87;61.80;102062.97;125301;1099;104229;-77
2021/03/30 11:05:44;;;;;;;29.47;17.47;;;;;;;13.97;61.70;102058.20;125862;1099;104235;-76
2021/03/30 11:08:14;;;;;;;28.97;16.37;;;;;;;14.02;60.83;102061.98;125750;1099;105907;-76
2021/03/30 11:10:54;;;;;;;26.70;15.57;;;;;;;13.92;59.05;102062.37;125830;1099;104191;-77
2021/03/30 11:13:47;;;;;;;25.57;14.00;;;;;;;13.65;58.94;102060.23;126050;1099;104195;-76
2021/03/30 11:16:19;;;;;;;25.17;15.03;;;;;;;13.50;60.12;102058.59;125133;1102;104229;-76
2021/03/30 11:18:57;;;;;;;27.37;14.93;;;;;;;13.47;59.64;102056.70;125737;1099;102555;-77
2021/03/30 11:21:32;;;;;;;26.87;14.90;;;;;;;13.55;58.94;102052.70;125777;1099;104335;-78
2021/03/30 11:24:17;;;;;;;26.23;14.73;;;;;;;13.47;59.75;102054.96;125424;1099;104325;-77
2021/03/30 11:26:50;;;;;;;27.30;15.23;;;;;;;13.43;59.41;102050.39;125756;1098;104326;-77
2021/03/30 11:29:26;;;;;;;28.87;15.13;;;;;;;13.39;59.57;102053.69;125331;1102;104214;-77
2021/03/30 11:32:24;;;;;;;30.33;16.80;;;;;;;13.31;59.10;102053.28;124977;1102;104530;-77
2021/03/30 11:35:02;;;;;;;28.50;16.27;;;;;;;13.35;59.49;102050.83;125129;1102;102306;-77
2021/03/30 11:38:20;;;;;;;25.87;14.07;;;;;;;13.31;58.87;102045.38;125215;1102;104287;-77
2021/03/30 11:41:07;;;;;;;25.53;13.87;;;;;;;13.31;57.75;102045.38;124832;1102;107896;-75
2021/03/30 11:43:51;;;;;;;23.47;13.30;;;;;;;13.27;56.07;102047.78;125197;1102;104306;-75
2021/03/30 11:46:23;;;;;;;25.77;13.83;;;;;;;13.26;57.48;102036.34;125180;1102;104165;-77
2021/03/30 11:48:58;;;;;;;23.73;11.17;;;;;;;13.35;57.23;102040.28;125123;1102;104318;-77
2021/03/30 11:51:29;;;;;;;21.70;10.87;;;;;;;13.36;56.51;102039.47;125198;1102;104153;-76
2021/03/30 11:54:46;;;;;;;23.33;13.70;;;;;;;13.44;57.40;102036.35;125140;1102;104296;-76